createdAt,value
2023-04-02T00:00:03.779Z,122.500000
2023-04-02T00:01:00.729Z,122.500000
2023-04-02T00:02:00.855Z,122.500000
2023-04-02T00:03:00.807Z,110.000000
2023-04-02T00:04:01.879Z,110.000000
2023-04-02T00:05:03.418Z,120.000000
2023-04-02T00:06:00.819Z,120.000000
2023-04-02T00:07:00.738Z,132.500000
2023-04-02T00:08:00.844Z,132.500000
2023-04-02T00:09:00.755Z,132.500000
2023-04-02T00:10:03.809Z,117.500000
2023-04-02T00:11:00.772Z,117.500000
2023-04-02T00:12:01.055Z,125.000000
2023-04-02T00:13:00.777Z,125.000000
2023-04-02T00:14:00.905Z,125.000000
2023-04-02T00:15:03.450Z,122.500000
2023-04-02T00:16:00.868Z,122.500000
2023-04-02T00:17:00.785Z,122.500000
2023-04-02T00:18:01.846Z,122.500000
2023-04-02T00:19:00.792Z,122.500000
2023-04-02T00:20:03.879Z,130.000000
2023-04-02T00:21:00.812Z,130.000000
2023-04-02T00:22:00.869Z,132.500000
2023-04-02T00:23:00.835Z,132.500000
2023-04-02T00:24:00.896Z,132.500000
2023-04-02T00:25:03.438Z,140.000000
2023-04-02T00:26:00.912Z,140.000000
2023-04-02T00:27:00.866Z,140.000000
2023-04-02T00:28:00.920Z,135.000000
2023-04-02T00:29:00.879Z,135.000000
2023-04-02T00:30:04.001Z,122.500000
2023-04-02T00:31:00.846Z,122.500000
2023-04-02T00:32:00.973Z,122.500000
2023-04-02T00:33:00.909Z,137.500000
2023-04-02T00:34:00.953Z,137.500000
2023-04-02T00:35:03.546Z,137.500000
2023-04-02T00:36:01.835Z,135.000000
2023-04-02T00:37:00.868Z,135.000000
2023-04-02T00:38:00.968Z,127.500000
2023-04-02T00:39:00.899Z,127.500000
2023-04-02T00:40:03.996Z,127.500000
2023-04-02T00:41:00.896Z,130.000000
2023-04-02T00:42:00.990Z,130.000000
2023-04-02T00:43:00.895Z,120.000000
2023-04-02T00:44:01.036Z,120.000000
2023-04-02T00:45:04.507Z,120.000000
2023-04-02T00:46:01.058Z,112.500000
2023-04-02T00:47:00.929Z,112.500000
2023-04-02T00:48:01.043Z,122.500000
2023-04-02T00:49:00.939Z,122.500000
2023-04-02T00:50:05.351Z,122.500000
2023-04-02T00:51:00.950Z,107.500000
2023-04-02T00:52:01.001Z,107.500000
2023-04-02T00:53:00.961Z,80.000000
2023-04-02T00:54:01.031Z,80.000000
2023-04-02T00:55:03.746Z,80.000000
2023-04-02T00:56:01.057Z,97.500000
2023-04-02T00:57:00.990Z,97.500000
2023-04-02T00:58:02.110Z,97.500000
2023-04-02T00:59:00.981Z,107.500000
2023-04-02T01:00:05.493Z,107.500000
2023-04-02T01:01:01.008Z,102.500000
2023-04-02T01:02:01.096Z,102.500000
2023-04-02T01:03:02.449Z,102.500000
2023-04-02T01:04:01.792Z,105.000000
2023-04-02T01:05:03.734Z,105.000000
2023-04-02T01:06:01.108Z,97.500000
2023-04-02T01:07:01.027Z,97.500000
2023-04-02T01:08:01.123Z,97.500000
2023-04-02T01:09:01.039Z,97.500000
2023-04-02T01:10:04.170Z,97.500000
2023-04-02T01:11:01.044Z,95.000000
2023-04-02T01:12:01.110Z,95.000000
2023-04-02T01:13:01.062Z,95.000000
2023-04-02T01:14:02.382Z,112.500000
2023-04-02T01:15:03.788Z,112.500000
2023-04-02T01:16:01.197Z,110.000000
2023-04-02T01:17:01.071Z,110.000000
2023-04-02T01:18:05.423Z,110.000000
2023-04-02T01:19:01.069Z,97.500000
2023-04-02T01:20:04.379Z,97.500000
2023-04-02T01:21:01.096Z,97.500000
2023-04-02T01:22:01.175Z,100.000000
2023-04-02T01:23:01.097Z,100.000000
2023-04-02T01:24:01.216Z,97.500000
2023-04-02T01:25:03.741Z,97.500000
2023-04-02T01:26:01.216Z,100.000000
2023-04-02T01:27:01.137Z,100.000000
2023-04-02T01:28:01.233Z,100.000000
2023-04-02T01:29:01.123Z,100.000000
2023-04-02T01:30:04.433Z,100.000000
2023-04-02T01:31:01.179Z,97.500000
2023-04-02T01:32:01.284Z,97.500000
2023-04-02T01:33:01.173Z,97.500000
2023-04-02T01:34:01.224Z,97.500000
2023-04-02T01:35:03.821Z,97.500000
2023-04-02T01:36:01.875Z,97.500000
2023-04-02T01:37:00.167Z,97.500000
2023-04-02T01:38:00.264Z,97.500000
2023-04-02T01:39:00.179Z,97.500000
2023-04-02T01:40:06.826Z,97.500000
2023-04-02T01:41:00.194Z,72.500000
2023-04-02T01:42:00.294Z,72.500000
2023-04-02T01:43:00.215Z,72.500000
2023-04-02T01:44:00.313Z,2.500000
2023-04-02T01:45:02.872Z,2.500000
2023-04-02T01:46:00.311Z,2.500000
2023-04-02T01:47:00.217Z,27.500000
2023-04-02T01:48:00.404Z,27.500000
2023-04-02T01:49:00.239Z,27.500000
2023-04-02T01:50:03.270Z,27.500000
2023-04-02T01:51:00.266Z,115.000000
2023-04-02T01:52:00.326Z,115.000000
2023-04-02T01:53:00.247Z,115.000000
2023-04-02T01:54:00.350Z,135.000000
2023-04-02T01:55:02.925Z,135.000000
2023-04-02T01:56:00.375Z,47.500000
2023-04-02T01:57:00.285Z,47.500000
2023-04-02T01:58:00.369Z,47.500000
2023-04-02T01:59:00.270Z,47.500000
2023-04-02T02:00:03.457Z,47.500000
2023-04-02T02:01:00.353Z,37.500000
2023-04-02T02:02:00.453Z,37.500000
2023-04-02T02:03:00.393Z,37.500000
2023-04-02T02:04:00.434Z,37.500000
2023-04-02T02:05:02.927Z,37.500000
2023-04-02T02:06:00.451Z,37.500000
2023-04-02T02:07:00.326Z,37.500000
2023-04-02T02:08:02.011Z,37.500000
2023-04-02T02:09:00.367Z,37.500000
2023-04-02T02:10:03.484Z,37.500000
2023-04-02T02:11:00.343Z,37.500000
2023-04-02T02:12:00.439Z,37.500000
2023-04-02T02:13:00.356Z,37.500000
2023-04-02T02:14:00.489Z,37.500000
2023-04-02T02:15:03.062Z,37.500000
2023-04-02T02:16:00.528Z,37.500000
2023-04-02T02:17:00.380Z,37.500000
2023-04-02T02:18:01.011Z,37.500000
2023-04-02T02:19:00.397Z,37.500000
2023-04-02T02:20:03.563Z,37.500000
2023-04-02T02:21:00.424Z,37.500000
2023-04-02T02:22:01.850Z,15.000000
2023-04-02T02:23:00.408Z,15.000000
2023-04-02T02:24:00.517Z,2.500000
2023-04-02T02:25:03.101Z,2.500000
2023-04-02T02:26:00.542Z,2.500000
2023-04-02T02:27:00.452Z,2.500000
2023-04-02T02:28:00.535Z,2.500000
2023-04-02T02:29:00.434Z,2.500000
2023-04-02T02:30:03.542Z,2.500000
2023-04-02T02:31:00.450Z,2.500000
2023-04-02T02:32:00.628Z,2.500000
2023-04-02T02:33:00.551Z,2.500000
2023-04-02T02:34:00.548Z,2.500000
2023-04-02T02:35:03.974Z,2.500000
2023-04-02T02:36:01.887Z,2.500000
2023-04-02T02:37:00.475Z,2.500000
2023-04-02T02:38:00.599Z,2.500000
2023-04-02T02:39:00.498Z,2.500000
2023-04-02T02:40:03.437Z,2.500000
2023-04-02T02:41:00.505Z,2.500000
2023-04-02T02:42:00.585Z,17.500000
2023-04-02T02:43:00.514Z,17.500000
2023-04-02T02:44:00.598Z,17.500000
2023-04-02T02:45:03.516Z,32.500000
2023-04-02T02:46:00.694Z,32.500000
2023-04-02T02:47:00.528Z,40.000000
2023-04-02T02:48:00.650Z,40.000000
2023-04-02T02:49:00.518Z,40.000000
2023-04-02T02:50:03.599Z,75.000000
2023-04-02T02:51:00.546Z,75.000000
2023-04-02T02:52:00.647Z,330.000000
2023-04-02T02:53:00.550Z,330.000000
2023-04-02T02:54:00.633Z,330.000000
2023-04-02T02:55:03.457Z,330.000000
2023-04-02T02:56:00.711Z,330.000000
2023-04-02T02:57:00.629Z,330.000000
2023-04-02T02:58:00.630Z,330.000000
2023-04-02T02:59:00.561Z,330.000000
2023-04-02T03:00:05.027Z,330.000000
2023-04-02T03:01:00.612Z,330.000000
2023-04-02T03:02:00.697Z,330.000000
2023-04-02T03:03:00.702Z,330.000000
2023-04-02T03:04:00.748Z,330.000000
2023-04-02T03:05:03.270Z,330.000000
2023-04-02T03:06:03.792Z,330.000000
2023-04-02T03:07:00.622Z,330.000000
2023-04-02T03:08:01.871Z,330.000000
2023-04-02T03:09:00.626Z,332.500000
2023-04-02T03:10:03.765Z,332.500000
2023-04-02T03:11:00.625Z,332.500000
2023-04-02T03:12:00.713Z,332.500000
2023-04-02T03:13:00.643Z,332.500000
2023-04-02T03:14:00.734Z,332.500000
2023-04-02T03:15:03.429Z,335.000000
2023-04-02T03:16:00.806Z,335.000000
2023-04-02T03:17:00.642Z,335.000000
2023-04-02T03:18:00.753Z,335.000000
2023-04-02T03:19:00.684Z,347.500000
2023-04-02T03:20:05.238Z,347.500000
2023-04-02T03:21:00.695Z,347.500000
2023-04-02T03:22:01.820Z,0.000000
2023-04-02T03:23:00.683Z,0.000000
2023-04-02T03:24:00.810Z,0.000000
2023-04-02T03:25:03.380Z,5.000000
2023-04-02T03:26:00.823Z,5.000000
2023-04-02T03:27:00.724Z,357.500000
2023-04-02T03:28:00.773Z,357.500000
2023-04-02T03:29:00.727Z,350.000000
2023-04-02T03:30:05.298Z,350.000000
2023-04-02T03:31:00.776Z,350.000000
2023-04-02T03:32:00.874Z,350.000000
2023-04-02T03:33:00.794Z,350.000000
2023-04-02T03:34:00.824Z,350.000000
2023-04-02T03:35:03.410Z,350.000000
2023-04-02T03:36:01.862Z,350.000000
2023-04-02T03:37:00.758Z,350.000000
2023-04-02T03:38:00.871Z,350.000000
2023-04-02T03:39:00.770Z,350.000000
2023-04-02T03:40:03.865Z,350.000000
2023-04-02T03:41:00.760Z,350.000000
2023-04-02T03:42:00.895Z,350.000000
2023-04-02T03:43:00.775Z,350.000000
2023-04-02T03:44:00.921Z,350.000000
2023-04-02T03:45:03.556Z,350.000000
2023-04-02T03:46:01.899Z,350.000000
2023-04-02T03:47:00.789Z,350.000000
2023-04-02T03:48:00.995Z,10.000000
2023-04-02T03:49:00.816Z,10.000000
2023-04-02T03:50:05.404Z,17.500000
2023-04-02T03:51:00.822Z,17.500000
2023-04-02T03:52:00.886Z,17.500000
2023-04-02T03:53:00.816Z,40.000000
2023-04-02T03:54:00.906Z,40.000000
2023-04-02T03:55:03.550Z,40.000000
2023-04-02T03:56:00.943Z,62.500000
2023-04-02T03:57:00.885Z,62.500000
2023-04-02T03:58:00.917Z,37.500000
2023-04-02T03:59:00.850Z,37.500000
2023-04-02T04:00:04.057Z,37.500000
2023-04-02T04:01:00.875Z,347.500000
2023-04-02T04:02:01.033Z,347.500000
2023-04-02T04:03:00.907Z,350.000000
2023-04-02T04:04:01.859Z,350.000000
2023-04-02T04:05:03.574Z,347.500000
2023-04-02T04:06:00.932Z,347.500000
2023-04-02T04:07:00.881Z,347.500000
2023-04-02T04:08:01.101Z,12.500000
2023-04-02T04:09:00.909Z,12.500000
2023-04-02T04:10:04.042Z,12.500000
2023-04-02T04:11:00.937Z,15.000000
2023-04-02T04:12:00.998Z,15.000000
2023-04-02T04:13:00.913Z,20.000000
2023-04-02T04:14:01.006Z,20.000000
2023-04-02T04:15:03.610Z,10.000000
2023-04-02T04:16:05.244Z,10.000000
2023-04-02T04:17:00.916Z,10.000000
2023-04-02T04:18:01.085Z,10.000000
2023-04-02T04:19:00.934Z,10.000000
2023-04-02T04:20:04.434Z,10.000000
2023-04-02T04:21:00.955Z,10.000000
2023-04-02T04:22:01.019Z,10.000000
2023-04-02T04:23:00.945Z,10.000000
2023-04-02T04:24:02.108Z,17.500000
2023-04-02T04:25:04.454Z,17.500000
2023-04-02T04:26:01.202Z,15.000000
2023-04-02T04:27:00.994Z,15.000000
2023-04-02T04:28:01.080Z,15.000000
2023-04-02T04:29:01.001Z,15.000000
2023-04-02T04:30:04.331Z,15.000000
2023-04-02T04:31:01.022Z,17.500000
2023-04-02T04:32:01.148Z,17.500000
2023-04-02T04:33:01.120Z,0.000000
2023-04-02T04:34:01.100Z,0.000000
2023-04-02T04:35:03.942Z,0.000000
2023-04-02T04:36:01.159Z,2.500000
2023-04-02T04:37:01.025Z,2.500000
2023-04-02T04:38:01.139Z,10.000000
2023-04-02T04:39:01.041Z,10.000000
2023-04-02T04:40:04.494Z,10.000000
2023-04-02T04:41:01.035Z,15.000000
2023-04-02T04:42:01.135Z,15.000000
2023-04-02T04:43:01.067Z,15.000000
2023-04-02T04:44:01.187Z,42.500000
2023-04-02T04:45:03.806Z,42.500000
2023-04-02T04:46:01.206Z,15.000000
2023-04-02T04:47:01.075Z,15.000000
2023-04-02T04:48:01.246Z,15.000000
2023-04-02T04:49:01.070Z,15.000000
2023-04-02T04:50:05.327Z,15.000000
2023-04-02T04:51:01.172Z,15.000000
2023-04-02T04:52:01.161Z,15.000000
2023-04-02T04:53:01.095Z,55.000000
2023-04-02T04:54:01.205Z,55.000000
2023-04-02T04:55:03.943Z,55.000000
2023-04-02T04:56:15.975Z,5.000000
2023-04-02T04:57:01.138Z,5.000000
2023-04-02T04:58:04.365Z,355.000000
2023-04-02T04:59:01.141Z,355.000000
2023-04-02T05:00:05.263Z,17.500000
2023-04-02T05:01:00.164Z,17.500000
2023-04-02T05:02:00.262Z,17.500000
2023-04-02T05:03:00.204Z,5.000000
2023-04-02T05:04:00.250Z,5.000000
2023-04-02T05:05:02.846Z,5.000000
2023-04-02T05:06:00.275Z,332.500000
2023-04-02T05:07:00.175Z,332.500000
2023-04-02T05:08:00.274Z,15.000000
2023-04-02T05:09:00.196Z,15.000000
2023-04-02T05:10:04.570Z,15.000000
2023-04-02T05:11:00.196Z,55.000000
2023-04-02T05:12:00.314Z,55.000000
2023-04-02T05:13:00.214Z,55.000000
2023-04-02T05:14:00.292Z,135.000000
2023-04-02T05:15:03.318Z,135.000000
2023-04-02T05:16:01.416Z,35.000000
2023-04-02T05:17:00.218Z,35.000000
2023-04-02T05:18:00.384Z,35.000000
2023-04-02T05:19:00.227Z,35.000000
2023-04-02T05:20:04.143Z,35.000000
2023-04-02T05:21:00.246Z,70.000000
2023-04-02T05:22:00.324Z,70.000000
2023-04-02T05:23:00.245Z,70.000000
2023-04-02T05:24:00.341Z,70.000000
2023-04-02T05:25:02.955Z,70.000000
2023-04-02T05:26:00.344Z,85.000000
2023-04-02T05:27:00.271Z,85.000000
2023-04-02T05:28:00.326Z,85.000000
2023-04-02T05:29:00.296Z,20.000000
2023-04-02T05:30:03.567Z,20.000000
2023-04-02T05:31:00.331Z,60.000000
2023-04-02T05:32:00.431Z,60.000000
2023-04-02T05:33:00.378Z,60.000000
2023-04-02T05:34:00.370Z,90.000000
2023-04-02T05:35:03.011Z,90.000000
2023-04-02T05:36:00.465Z,90.000000
2023-04-02T05:37:00.326Z,67.500000
2023-04-02T05:38:00.406Z,67.500000
2023-04-02T05:39:00.383Z,322.500000
2023-04-02T05:40:03.718Z,322.500000
2023-04-02T05:41:00.368Z,322.500000
2023-04-02T05:42:00.443Z,255.000000
2023-04-02T05:43:00.352Z,255.000000
2023-04-02T05:44:00.462Z,135.000000
2023-04-02T05:45:03.086Z,135.000000
2023-04-02T05:46:00.444Z,115.000000
2023-04-02T05:47:00.729Z,115.000000
2023-04-02T05:48:00.575Z,115.000000
2023-04-02T05:49:00.409Z,85.000000
2023-04-02T05:50:04.728Z,85.000000
2023-04-02T05:51:00.430Z,85.000000
2023-04-02T05:52:00.480Z,32.500000
2023-04-02T05:53:00.431Z,32.500000
2023-04-02T05:54:00.499Z,340.000000
2023-04-02T05:55:04.599Z,340.000000
2023-04-02T05:56:00.533Z,82.500000
2023-04-02T05:57:00.493Z,82.500000
2023-04-02T05:58:29.455Z,82.500000
2023-04-02T05:59:00.461Z,120.000000
2023-04-02T06:00:04.168Z,120.000000
2023-04-02T06:01:00.447Z,120.000000
2023-04-02T06:02:00.791Z,45.000000
2023-04-02T06:03:00.529Z,45.000000
2023-04-02T06:04:00.775Z,95.000000
2023-04-02T06:05:03.311Z,95.000000
2023-04-02T06:06:00.546Z,95.000000
2023-04-02T06:07:00.472Z,65.000000
2023-04-02T06:08:00.577Z,65.000000
2023-04-02T06:09:00.510Z,65.000000
2023-04-02T06:10:03.848Z,70.000000
2023-04-02T06:11:00.499Z,70.000000
2023-04-02T06:12:00.591Z,80.000000
2023-04-02T06:13:00.504Z,80.000000
2023-04-02T06:14:03.703Z,80.000000
2023-04-02T06:15:04.046Z,90.000000
2023-04-02T06:16:00.619Z,90.000000
2023-04-02T06:17:00.618Z,90.000000
2023-04-02T06:18:00.742Z,90.000000
2023-04-02T06:19:00.540Z,90.000000
2023-04-02T06:20:03.763Z,82.500000
2023-04-02T06:21:00.593Z,82.500000
2023-04-02T06:22:00.637Z,80.000000
2023-04-02T06:23:00.579Z,80.000000
2023-04-02T06:24:00.663Z,80.000000
2023-04-02T06:25:03.430Z,95.000000
2023-04-02T06:26:00.689Z,95.000000
2023-04-02T06:27:00.604Z,95.000000
2023-04-02T06:28:00.670Z,95.000000
2023-04-02T06:29:00.594Z,95.000000
2023-04-02T06:30:03.731Z,115.000000
2023-04-02T06:31:00.648Z,115.000000
2023-04-02T06:32:00.700Z,140.000000
2023-04-02T06:33:00.723Z,140.000000
2023-04-02T06:34:00.713Z,140.000000
2023-04-02T06:35:03.444Z,110.000000
2023-04-02T06:36:00.809Z,110.000000
2023-04-02T06:37:00.684Z,25.000000
2023-04-02T06:38:00.768Z,25.000000
2023-04-02T06:39:00.689Z,70.000000
2023-04-02T06:40:03.757Z,70.000000
2023-04-02T06:41:00.681Z,70.000000
2023-04-02T06:42:00.776Z,90.000000
2023-04-02T06:43:00.703Z,90.000000
2023-04-02T06:44:00.790Z,90.000000
2023-04-02T06:45:03.636Z,120.000000
2023-04-02T06:46:00.827Z,120.000000
2023-04-02T06:47:00.719Z,100.000000
2023-04-02T06:48:00.828Z,100.000000
2023-04-02T06:49:00.720Z,97.500000
2023-04-02T06:50:04.717Z,97.500000
2023-04-02T06:51:00.740Z,97.500000
2023-04-02T06:52:00.846Z,65.000000
2023-04-02T06:53:00.751Z,65.000000
2023-04-02T06:54:00.842Z,65.000000
2023-04-02T06:55:03.580Z,92.500000
2023-04-02T06:56:00.869Z,92.500000
2023-04-02T06:57:00.830Z,55.000000
2023-04-02T06:58:00.844Z,55.000000
2023-04-02T06:59:00.792Z,57.500000
2023-04-02T07:00:04.204Z,57.500000
2023-04-02T07:01:00.778Z,57.500000
2023-04-02T07:02:00.897Z,105.000000
2023-04-02T07:03:00.822Z,105.000000
2023-04-02T07:04:00.866Z,105.000000
2023-04-02T07:05:03.512Z,115.000000
2023-04-02T07:06:00.877Z,115.000000
2023-04-02T07:07:00.815Z,115.000000
2023-04-02T07:08:00.928Z,32.500000
2023-04-02T07:09:00.823Z,32.500000
2023-04-02T07:10:06.059Z,220.000000
2023-04-02T07:11:00.820Z,220.000000
2023-04-02T07:12:01.966Z,147.500000
2023-04-02T07:13:00.840Z,147.500000
2023-04-02T07:14:00.933Z,147.500000
2023-04-02T07:15:03.685Z,0.000000
2023-04-02T07:16:00.972Z,0.000000
2023-04-02T07:17:00.867Z,0.000000
2023-04-02T07:18:01.013Z,85.000000
2023-04-02T07:19:00.871Z,85.000000
2023-04-02T07:20:04.573Z,67.500000
2023-04-02T07:21:00.897Z,67.500000
2023-04-02T07:22:00.960Z,37.500000
2023-04-02T07:23:00.880Z,37.500000
2023-04-02T07:24:01.015Z,37.500000
2023-04-02T07:25:03.600Z,80.000000
2023-04-02T07:26:00.990Z,80.000000
2023-04-02T07:27:00.923Z,80.000000
2023-04-02T07:28:00.975Z,112.500000
2023-04-02T07:29:00.927Z,112.500000
2023-04-02T07:30:04.401Z,112.500000
2023-04-02T07:31:00.951Z,32.500000
2023-04-02T07:32:01.020Z,32.500000
2023-04-02T07:33:00.995Z,37.500000
2023-04-02T07:34:01.029Z,37.500000
2023-04-02T07:35:03.702Z,22.500000
2023-04-02T07:36:01.069Z,22.500000
2023-04-02T07:37:00.968Z,22.500000
2023-04-02T07:38:01.242Z,342.500000
2023-04-02T07:39:00.974Z,342.500000
2023-04-02T07:40:04.568Z,27.500000
2023-04-02T07:41:00.977Z,27.500000
2023-04-02T07:42:01.277Z,27.500000
2023-04-02T07:43:01.008Z,72.500000
2023-04-02T07:44:01.067Z,72.500000
2023-04-02T07:45:05.902Z,32.500000
2023-04-02T07:46:01.066Z,32.500000
2023-04-02T07:47:01.195Z,32.500000
2023-04-02T07:48:01.112Z,120.000000
2023-04-02T07:49:01.012Z,120.000000
2023-04-02T07:50:04.490Z,120.000000
2023-04-02T07:51:01.019Z,15.000000
2023-04-02T07:52:01.116Z,15.000000
2023-04-02T07:53:01.039Z,117.500000
2023-04-02T07:54:01.121Z,117.500000
2023-04-02T07:55:04.315Z,132.500000
2023-04-02T07:56:01.174Z,132.500000
2023-04-02T07:57:01.075Z,132.500000
2023-04-02T07:58:01.110Z,15.000000
2023-04-02T07:59:01.038Z,15.000000
2023-04-02T08:00:04.428Z,355.000000
2023-04-02T08:01:01.067Z,355.000000
2023-04-02T08:02:01.194Z,355.000000
2023-04-02T08:03:01.160Z,30.000000
2023-04-02T08:04:01.202Z,30.000000
2023-04-02T08:05:05.876Z,67.500000
2023-04-02T08:06:01.188Z,67.500000
2023-04-02T08:07:01.120Z,67.500000
2023-04-02T08:08:01.190Z,62.500000
2023-04-02T08:09:01.126Z,62.500000
2023-04-02T08:10:04.151Z,5.000000
2023-04-02T08:11:01.128Z,5.000000
2023-04-02T08:12:01.233Z,5.000000
2023-04-02T08:13:01.117Z,325.000000
2023-04-02T08:14:01.222Z,325.000000
2023-04-02T08:15:04.107Z,325.000000
2023-04-02T08:16:01.214Z,347.500000
2023-04-02T08:17:01.191Z,347.500000
2023-04-02T08:18:01.267Z,347.500000
2023-04-02T08:19:01.151Z,347.500000
2023-04-02T08:20:04.468Z,347.500000
2023-04-02T08:21:01.188Z,67.500000
2023-04-02T08:22:01.258Z,67.500000
2023-04-02T08:23:01.229Z,67.500000
2023-04-02T08:24:01.284Z,97.500000
2023-04-02T08:25:03.179Z,97.500000
2023-04-02T08:26:03.446Z,112.500000
2023-04-02T08:27:00.205Z,112.500000
2023-04-02T08:28:00.300Z,112.500000
2023-04-02T08:29:00.236Z,85.000000
2023-04-02T08:30:03.639Z,85.000000
2023-04-02T08:31:00.293Z,25.000000
2023-04-02T08:32:00.337Z,25.000000
2023-04-02T08:33:00.332Z,25.000000
2023-04-02T08:34:00.557Z,25.000000
2023-04-02T08:35:04.793Z,25.000000
2023-04-02T08:36:00.378Z,25.000000
2023-04-02T08:37:00.262Z,25.000000
2023-04-02T08:38:00.386Z,25.000000
2023-04-02T08:39:00.271Z,52.500000
2023-04-02T08:40:03.503Z,52.500000
2023-04-02T08:41:00.271Z,110.000000
2023-04-02T08:42:00.368Z,110.000000
2023-04-02T08:43:00.284Z,110.000000
2023-04-02T08:44:00.566Z,72.500000
2023-04-02T08:45:17.197Z,72.500000
2023-04-02T08:46:00.373Z,72.500000
2023-04-02T08:47:00.302Z,87.500000
2023-04-02T08:48:00.396Z,87.500000
2023-04-02T08:49:00.307Z,70.000000
2023-04-02T08:50:04.725Z,70.000000
2023-04-02T08:51:00.324Z,70.000000
2023-04-02T08:52:00.387Z,90.000000
2023-04-02T08:53:00.332Z,90.000000
2023-04-02T08:54:00.418Z,102.500000
2023-04-02T08:55:03.172Z,102.500000
2023-04-02T08:56:00.447Z,102.500000
2023-04-02T08:57:00.423Z,25.000000
2023-04-02T08:58:00.423Z,25.000000
2023-04-02T08:59:00.365Z,25.000000
2023-04-02T09:00:06.386Z,25.000000
2023-04-02T09:01:00.367Z,25.000000
2023-04-02T09:02:00.547Z,87.500000
2023-04-02T09:03:00.406Z,87.500000
2023-04-02T09:04:00.438Z,75.000000
2023-04-02T09:05:35.557Z,75.000000
2023-04-02T09:06:00.465Z,75.000000
2023-04-02T09:07:00.396Z,35.000000
2023-04-02T09:08:00.649Z,35.000000
2023-04-02T09:09:00.409Z,35.000000
2023-04-02T09:10:03.598Z,37.500000
2023-04-02T09:11:00.419Z,37.500000
2023-04-02T09:12:00.506Z,342.500000
2023-04-02T09:13:00.405Z,342.500000
2023-04-02T09:14:00.504Z,330.000000
2023-04-02T09:15:03.582Z,330.000000
2023-04-02T09:16:00.536Z,357.500000
2023-04-02T09:17:00.433Z,357.500000
2023-04-02T09:18:00.615Z,357.500000
2023-04-02T09:19:00.436Z,30.000000
2023-04-02T09:20:05.547Z,30.000000
2023-04-02T09:21:00.461Z,30.000000
2023-04-02T09:22:02.025Z,322.500000
2023-04-02T09:23:00.459Z,322.500000
2023-04-02T09:24:03.295Z,180.000000
2023-04-02T09:25:03.244Z,180.000000
2023-04-02T09:26:04.631Z,52.500000
2023-04-02T09:27:00.502Z,52.500000
2023-04-02T09:28:01.005Z,52.500000
2023-04-02T09:29:00.482Z,357.500000
2023-04-02T09:30:17.770Z,357.500000
2023-04-02T09:31:00.487Z,357.500000
2023-04-02T09:32:00.785Z,190.000000
2023-04-02T09:33:00.524Z,190.000000
2023-04-02T09:34:00.647Z,190.000000
2023-04-02T09:35:07.534Z,155.000000
2023-04-02T09:36:01.832Z,155.000000
2023-04-02T09:37:00.522Z,137.500000
2023-04-02T09:38:00.615Z,137.500000
2023-04-02T09:39:00.542Z,105.000000
2023-04-02T09:40:05.941Z,105.000000
2023-04-02T09:41:00.537Z,105.000000
2023-04-02T09:42:05.713Z,352.500000
2023-04-02T09:43:00.546Z,352.500000
2023-04-02T09:44:01.727Z,7.500000
2023-04-02T09:45:03.424Z,7.500000
2023-04-02T09:46:01.086Z,7.500000
2023-04-02T09:47:00.696Z,70.000000
2023-04-02T09:48:00.958Z,70.000000
2023-04-02T09:49:00.607Z,55.000000
2023-04-02T09:50:04.817Z,55.000000
2023-04-02T09:51:00.584Z,55.000000
2023-04-02T09:52:00.674Z,70.000000
2023-04-02T09:53:00.573Z,70.000000
2023-04-02T09:54:00.748Z,85.000000
2023-04-02T09:55:04.146Z,85.000000
2023-04-02T09:56:00.724Z,85.000000
2023-04-02T09:57:00.651Z,92.500000
2023-04-02T09:58:02.093Z,92.500000
2023-04-02T09:59:00.614Z,90.000000
2023-04-02T10:00:06.022Z,90.000000
2023-04-02T10:01:00.878Z,90.000000
2023-04-02T10:02:01.489Z,62.500000
2023-04-02T10:03:00.776Z,62.500000
2023-04-02T10:04:02.217Z,62.500000
2023-04-02T10:05:03.611Z,350.000000
2023-04-02T10:06:00.850Z,350.000000
2023-04-02T10:07:00.688Z,77.500000
2023-04-02T10:08:00.793Z,77.500000
2023-04-02T10:09:00.696Z,77.500000
2023-04-02T10:10:09.705Z,62.500000
2023-04-02T10:11:00.699Z,62.500000
2023-04-02T10:12:04.034Z,77.500000
2023-04-02T10:13:00.699Z,77.500000
2023-04-02T10:14:00.828Z,77.500000
2023-04-02T10:15:05.552Z,67.500000
2023-04-02T10:16:00.865Z,67.500000
2023-04-02T10:17:00.868Z,345.000000
2023-04-02T10:18:01.785Z,345.000000
2023-04-02T10:19:00.739Z,345.000000
2023-04-02T10:20:06.979Z,345.000000
2023-04-02T10:21:00.763Z,345.000000
2023-04-02T10:22:00.830Z,55.000000
2023-04-02T10:23:00.741Z,55.000000
2023-04-02T10:24:00.829Z,55.000000
2023-04-02T10:25:03.447Z,60.000000
2023-04-02T10:26:00.861Z,60.000000
2023-04-02T10:27:00.770Z,60.000000
2023-04-02T10:28:00.857Z,35.000000
2023-04-02T10:29:00.773Z,35.000000
2023-04-02T10:30:04.285Z,55.000000
2023-04-02T10:31:00.829Z,55.000000
2023-04-02T10:32:01.017Z,55.000000
2023-04-02T10:33:00.946Z,152.500000
2023-04-02T10:34:00.956Z,152.500000
2023-04-02T10:35:03.693Z,20.000000
2023-04-02T10:36:01.035Z,20.000000
2023-04-02T10:37:00.890Z,20.000000
2023-04-02T10:38:01.003Z,82.500000
2023-04-02T10:39:00.903Z,82.500000
2023-04-02T10:40:04.278Z,25.000000
2023-04-02T10:41:00.910Z,25.000000
2023-04-02T10:42:00.978Z,25.000000
2023-04-02T10:43:00.853Z,20.000000
2023-04-02T10:44:12.796Z,20.000000
2023-04-02T10:45:03.606Z,65.000000
2023-04-02T10:46:00.946Z,65.000000
2023-04-02T10:47:00.872Z,65.000000
2023-04-02T10:48:00.983Z,10.000000
2023-04-02T10:49:00.864Z,10.000000
2023-04-02T10:50:08.092Z,45.000000
2023-04-02T10:51:00.899Z,45.000000
2023-04-02T10:52:00.989Z,45.000000
2023-04-02T10:53:00.879Z,85.000000
2023-04-02T10:54:00.977Z,85.000000
2023-04-02T10:55:03.496Z,75.000000
2023-04-02T10:56:00.987Z,75.000000
2023-04-02T10:57:00.934Z,60.000000
2023-04-02T10:58:01.010Z,60.000000
2023-04-02T10:59:33.349Z,60.000000
2023-04-02T11:00:04.633Z,37.500000
2023-04-02T11:01:00.997Z,37.500000
2023-04-02T11:02:01.058Z,37.500000
2023-04-02T11:03:01.021Z,60.000000
2023-04-02T11:04:01.057Z,60.000000
2023-04-02T11:05:03.748Z,92.500000
2023-04-02T11:06:01.046Z,92.500000
2023-04-02T11:07:13.060Z,75.000000
2023-04-02T11:08:01.084Z,75.000000
2023-04-02T11:09:00.988Z,75.000000
2023-04-02T11:10:36.438Z,352.500000
2023-04-02T11:11:02.203Z,352.500000
2023-04-02T11:12:01.066Z,352.500000
2023-04-02T11:13:00.989Z,87.500000
2023-04-02T11:14:01.099Z,87.500000
2023-04-02T11:15:03.831Z,30.000000
2023-04-02T11:16:01.121Z,30.000000
2023-04-02T11:17:01.009Z,30.000000
2023-04-02T11:18:01.169Z,2.500000